VYMD/MDL METAR and TAF weather

Enter ICAO airport designator
Station Type Date Time Source
VYMD METAR 2019/12/06 13:30 UTC NOAA

VYMD 061330Z 33002KT 6000 SCT025 18/15 Q1017 NOSIG


Station Type Date Time Source
VYMD Decoded METAR 2019/12/06 13:30 UTC NOAA

Station name not available
Dec 06, 2019 - 08:30 AM EST / 2019.12.06 1330 UTC
Wind: from the NNW (330 degrees) at 2 MPH (2 KT):0
Visibility: 3 mile(s):0
Sky conditions: partly cloudy
Temperature: 64 F (18 C)
Dew Point: 59 F (15 C)
Relative Humidity: 82%
Pressure (altimeter): 30.03 in. Hg (1017 hPa)
ob: VYMD 061330Z 33002KT 6000 SCT025 18/15 Q1017 NOSIG
cycle: 13

Station Type Date Time Source
VYMD TAF 2019/12/06 12:00 UTC NOAA

TAF VYMD 061100Z 0612/0712 32005KT 6000 FEW025
TEMPO 0612/0618 36006KT 5000 HZ SCT025

Example: see airport list